Time;durP1;ratioP1;P1;durP2;ratioP2;P2;SDS_P1;SDS_P2;PMS_P1;PMS_P2;Temp;Humidity;BMP_temperature;BMP_pressure;BME280_temperature;BME280_humidity;BME280_pressure;Samples;Min_cycle;Max_cycle;Signal;HPM_P1;HPM_P2
2022/08/23 00:01:16;;;;;;;;;1.25;0.50;;;;;25.84;45.89;100950.28;5036144;28;45442;-57
2022/08/23 00:03:42;;;;;;;;;0.00;0.00;;;;;25.84;46.04;100953.81;5017791;28;45579;-57
2022/08/23 00:06:09;;;;;;;;;0.00;0.00;;;;;25.82;45.94;100944.25;5025825;28;46076;-56
2022/08/23 00:08:34;;;;;;;;;1.50;1.50;;;;;25.81;45.80;100951.38;5039649;28;45056;-58
2022/08/23 00:11:00;;;;;;;;;1.00;1.00;;;;;25.82;46.31;100941.59;5019362;28;45356;-57
2022/08/23 00:13:26;;;;;;;;;1.75;1.75;;;;;25.82;46.08;100949.56;5034667;28;45687;-58
2022/08/23 00:15:52;;;;;;;;;3.00;2.00;;;;;25.81;46.14;100945.22;5036773;28;46094;-57
2022/08/23 00:18:19;;;;;;;;;2.50;2.50;;;;;25.80;46.31;100949.69;5035055;28;45485;-57
2022/08/23 00:20:44;;;;;;;;;3.00;2.00;;;;;25.79;46.16;100942.69;5037330;28;45410;-57
2022/08/23 00:23:10;;;;;;;;;1.50;1.00;;;;;25.77;46.53;100944.59;5027423;28;45499;-57
2022/08/23 00:25:35;;;;;;;;;1.00;1.00;;;;;25.77;46.35;100939.28;5032211;28;46128;-56
2022/08/23 00:28:01;;;;;;;;;2.00;2.00;;;;;25.76;45.96;100934.94;5035432;28;45275;-56
2022/08/23 00:30:26;;;;;;;;;1.00;1.00;;;;;25.75;46.12;100927.94;5031298;28;45242;-54
2022/08/23 00:32:52;;;;;;;;;1.25;1.25;;;;;25.74;46.36;100934.25;5041941;28;45578;-56
2022/08/23 00:35:19;;;;;;;;;1.25;1.00;;;;;25.75;46.92;100946.53;5040623;28;46783;-54
2022/08/23 00:37:45;;;;;;;;;2.00;1.00;;;;;25.73;46.62;100925.41;5039159;28;45801;-54
2022/08/23 00:40:13;;;;;;;;;2.00;2.00;;;;;25.73;46.49;100932.53;5035975;28;45400;-55
2022/08/23 00:49:03;;;;;;;;;1.00;1.00;;;;;25.70;46.33;100938.91;5062169;28;44988;-56
2022/08/23 00:51:43;;;;;;;;;3.00;1.25;;;;;25.71;46.39;100939.78;5057446;28;45772;-57
2022/08/23 00:54:10;;;;;;;;;1.00;1.00;;;;;25.71;46.89;100940.59;5025168;28;45861;-57
2022/08/23 00:56:38;;;;;;;;;1.75;1.25;;;;;25.71;46.80;100942.44;5016618;28;47162;-57
2022/08/23 00:59:04;;;;;;;;;2.00;1.00;;;;;25.71;46.56;100939.78;5016865;28;45431;-55
2022/08/23 01:01:29;;;;;;;;;2.00;1.00;;;;;25.70;46.30;100938.91;5022220;28;45414;-59
2022/08/23 01:03:57;;;;;;;;;1.00;1.00;;;;;25.72;46.94;100941.47;5058955;28;45516;-56
2022/08/23 01:06:37;;;;;;;;;1.25;0.75;;;;;25.72;46.68;100952.09;5042199;28;45720;-57
2022/08/23 01:09:08;;;;;;;;;1.25;1.25;;;;;25.70;46.85;100943.38;5036465;28;45719;-57
2022/08/23 01:11:37;;;;;;;;;2.00;0.50;;;;;25.71;46.38;100945.09;5032473;28;45293;-53
2022/08/23 01:14:17;;;;;;;;;1.50;1.00;;;;;25.71;46.75;100947.75;5016567;28;45344;-57
2022/08/23 01:16:52;;;;;;;;;1.00;1.00;;;;;25.71;46.87;100950.41;5015905;28;46352;-56
2022/08/23 01:19:39;;;;;;;;;2.00;2.00;;;;;25.71;46.18;100947.75;5015374;28;45825;-56
2022/08/23 01:22:39;;;;;;;;;2.50;1.50;;;;;25.71;47.09;100943.25;5023596;28;45468;-55
2022/08/23 01:25:08;;;;;;;;;2.00;2.00;;;;;25.70;46.56;100951.34;5036081;28;45700;-56
2022/08/23 01:27:34;;;;;;;;;3.00;1.50;;;;;25.70;46.55;100944.22;5024198;28;46110;-57
2022/08/23 01:29:59;;;;;;;;;1.75;1.75;;;;;25.70;47.00;100948.69;5015830;28;45330;-56
2022/08/23 01:32:25;;;;;;;;;1.00;1.00;;;;;25.70;46.46;100951.34;5022788;28;45534;-57
2022/08/23 01:34:51;;;;;;;;;1.00;1.00;;;;;25.70;46.60;100951.34;5035934;28;45969;-56
2022/08/23 01:37:19;;;;;;;;;1.00;1.00;;;;;25.70;46.92;100943.38;5035346;28;45446;-55
2022/08/23 01:39:44;;;;;;;;;1.00;1.00;;;;;25.71;46.44;100953.03;5035580;28;45261;-57
2022/08/23 01:42:11;;;;;;;;;1.50;1.50;;;;;25.70;46.43;100948.69;5027919;28;45273;-57
2022/08/23 01:44:36;;;;;;;;;1.00;1.00;;;;;25.72;46.75;100946.78;5015972;28;45567;-57
2022/08/23 01:47:02;;;;;;;;;1.25;1.25;;;;;25.72;46.96;100952.09;5015980;28;45974;-57
2022/08/23 01:49:27;;;;;;;;;1.00;1.00;;;;;25.71;46.89;100943.25;5015399;28;45950;-57
2022/08/23 01:51:54;;;;;;;;;3.00;2.00;;;;;25.73;47.13;100948.47;5034116;28;45374;-56
2022/08/23 01:54:20;;;;;;;;;2.25;1.00;;;;;25.73;46.32;100953.78;5035490;28;45385;-56
2022/08/23 01:56:45;;;;;;;;;1.50;1.50;;;;;25.73;46.51;100951.13;5035485;28;46114;-57
2022/08/23 01:59:12;;;;;;;;;1.00;1.00;;;;;25.73;46.55;100944.00;5035319;28;45355;-56
2022/08/23 02:01:38;;;;;;;;;1.00;1.00;;;;;25.72;47.07;100952.91;5033781;28;45241;-53
2022/08/23 02:04:04;;;;;;;;;1.25;1.25;;;;;25.69;47.15;100939.88;5015088;28;45497;-55
2022/08/23 02:06:29;;;;;;;;;0.50;0.50;;;;;25.70;47.14;100946.03;5015712;28;46066;-53
2022/08/23 02:09:01;;;;;;;;;1.00;1.00;;;;;25.67;46.75;100946.25;5019552;28;45221;-56
2022/08/23 02:11:30;;;;;;;;;1.00;1.00;;;;;25.64;47.29;100950.00;5016544;28;45306;-56
2022/08/23 02:13:58;;;;;;;;;1.25;1.25;;;;;25.63;47.19;100959.75;5018527;28;45218;-56
2022/08/23 02:16:36;;;;;;;;;1.00;1.00;;;;;25.61;46.75;100956.41;5020771;28;46206;-56
2022/08/23 02:19:06;;;;;;;;;1.00;1.00;;;;;25.61;47.38;100959.06;5021520;28;45430;-56
2022/08/23 02:21:32;;;;;;;;;0.75;0.75;;;;;25.60;47.22;100953.84;5027867;28;45253;-56
2022/08/23 02:23:58;;;;;;;;;1.00;1.00;;;;;25.58;47.22;100956.63;5038556;28;45420;-55
2022/08/23 02:26:24;;;;;;;;;0.25;0.25;;;;;25.57;47.47;100964.72;5038449;28;46365;-56
2022/08/23 02:28:51;;;;;;;;;1.25;0.00;;;;;25.55;47.04;100961.31;5038503;28;45390;-56
2022/08/23 02:31:17;;;;;;;;;1.25;1.00;;;;;25.54;47.28;100964.94;5035834;28;45479;-56
2022/08/23 02:33:42;;;;;;;;;1.00;1.00;;;;;25.51;46.99;100960.72;5021627;28;45217;-56
2022/08/23 02:36:08;;;;;;;;;0.75;0.75;;;;;25.51;47.64;100955.41;5043409;28;45005;-56
2022/08/23 02:38:33;;;;;;;;;1.00;1.00;;;;;25.50;47.72;100953.72;5030823;28;45257;-56
2022/08/23 02:41:00;;;;;;;;;1.00;1.00;;;;;25.47;47.08;100965.38;5019194;28;45639;-54
2022/08/23 02:43:25;;;;;;;;;3.00;1.00;;;;;25.42;47.89;100961.38;5036425;28;45630;-55
2022/08/23 02:45:51;;;;;;;;;1.75;1.75;;;;;25.35;48.13;100965.41;5038034;28;47130;-54
2022/08/23 02:48:16;;;;;;;;;1.50;1.50;;;;;25.29;47.97;100958.75;5037979;28;45299;-55
2022/08/23 02:50:41;;;;;;;;;1.00;1.00;;;;;25.22;48.33;100953.06;5037392;28;45336;-53
2022/08/23 02:53:07;;;;;;;;;1.50;1.50;;;;;25.22;48.01;100960.19;5022155;28;45427;-54
2022/08/23 02:55:33;;;;;;;;;2.25;2.00;;;;;25.18;48.28;100956.91;5017465;28;45903;-54
2022/08/23 02:57:58;;;;;;;;;3.00;1.00;;;;;25.16;47.90;100953.53;5018384;28;45293;-54
2022/08/23 03:00:23;;;;;;;;;0.00;0.00;;;;;25.18;48.51;100956.91;5018398;28;45297;-54
2022/08/23 03:02:49;;;;;;;;;1.00;1.00;;;;;25.15;48.53;100952.66;5030295;28;45470;-55
2022/08/23 03:05:15;;;;;;;;;1.00;1.00;;;;;25.22;48.04;100955.72;5037632;28;49738;-53
2022/08/23 03:07:40;;;;;;;;;1.25;1.00;;;;;25.26;48.10;100965.16;5038138;28;45653;-55
2022/08/23 03:10:08;;;;;;;;;2.75;1.00;;;;;25.27;48.29;100961.53;5036372;28;45452;-54
2022/08/23 03:12:33;;;;;;;;;1.00;1.00;;;;;25.29;48.40;100966.72;5038125;28;45316;-54
2022/08/23 03:14:58;;;;;;;;;0.25;0.25;;;;;25.28;48.27;100965.03;5037813;28;46250;-53
2022/08/23 03:17:24;;;;;;;;;1.00;1.00;;;;;25.28;48.51;100965.88;5043684;28;45941;-54
2022/08/23 03:19:51;;;;;;;;;1.00;1.00;;;;;25.30;48.42;100973.72;5057889;28;45185;-53
2022/08/23 03:22:17;;;;;;;;;0.25;0.25;;;;;25.30;48.33;100968.41;5033431;28;45545;-54
2022/08/23 03:24:42;;;;;;;;;1.00;1.00;;;;;25.30;48.20;100966.59;5017944;28;46103;-54
2022/08/23 03:27:08;;;;;;;;;1.00;1.00;;;;;25.30;48.34;100968.41;5017088;28;45402;-56
2022/08/23 03:29:33;;;;;;;;;0.50;0.50;;;;;25.30;48.46;100966.59;5018902;28;45423;-53
2022/08/23 03:31:59;;;;;;;;;1.00;1.00;;;;;25.33;47.81;100968.19;5035059;28;45565;-55
2022/08/23 03:34:24;;;;;;;;;1.75;1.75;;;;;25.31;48.30;100962.97;5066524;28;45095;-56
2022/08/23 03:36:50;;;;;;;;;1.00;1.00;;;;;25.34;47.92;100966.38;5056162;28;45454;-56
2022/08/23 03:39:15;;;;;;;;;1.00;1.00;;;;;25.36;48.17;100969.78;5037757;28;45442;-56
2022/08/23 03:41:41;;;;;;;;;1.00;1.00;;;;;25.35;47.80;100968.06;5035142;28;45625;-56
2022/08/23 03:44:06;;;;;;;;;3.00;1.00;;;;;25.33;48.31;100968.19;5016731;28;50623;-57
2022/08/23 03:46:31;;;;;;;;;2.00;0.00;;;;;25.29;48.39;100961.41;5016839;28;66529;-56
2022/08/23 03:49:00;;;;;;;;;1.00;0.75;;;;;25.29;48.65;100966.72;5017444;28;45349;-55
2022/08/23 03:51:27;;;;;;;;;2.00;2.00;;;;;25.26;48.17;100973.09;5017469;28;45186;-56
2022/08/23 03:53:53;;;;;;;;;0.50;0.50;;;;;25.22;48.17;100974.28;5037133;28;45394;-56
2022/08/23 03:56:23;;;;;;;;;1.00;1.00;;;;;25.20;48.37;100978.84;5036929;28;45420;-56
2022/08/23 03:58:49;;;;;;;;;1.75;0.25;;;;;25.22;48.62;100992.00;5037703;28;45394;-56
2022/08/23 04:01:15;;;;;;;;;2.00;2.00;;;;;25.24;48.49;100988.28;5039967;28;45548;-56
2022/08/23 04:03:40;;;;;;;;;1.00;1.00;;;;;25.24;48.31;100987.44;5038235;28;46210;-56
2022/08/23 04:06:05;;;;;;;;;2.00;2.00;;;;;25.25;48.36;100997.94;5036981;28;45301;-56
2022/08/23 04:08:31;;;;;;;;;3.00;3.00;;;;;25.26;48.76;100998.78;5035493;28;45214;-55
2022/08/23 04:10:56;;;;;;;;;1.00;1.00;;;;;25.27;48.43;100996.03;5048868;28;45249;-56
2022/08/23 04:13:23;;;;;;;;;2.00;1.00;;;;;25.27;48.27;101008.44;5041687;28;46182;-55
2022/08/23 04:15:48;;;;;;;;;2.00;2.00;;;;;25.29;48.91;101011.81;5039182;28;45411;-55
2022/08/23 04:18:14;;;;;;;;;1.00;1.00;;;;;25.31;48.87;101012.56;5036137;28;45513;-56
2022/08/23 04:20:39;;;;;;;;;1.00;1.00;;;;;25.31;48.74;101013.38;5037389;28;45370;-54
2022/08/23 04:23:05;;;;;;;;;1.25;1.00;;;;;25.33;48.32;101010.66;5019189;28;46575;-54
2022/08/23 04:25:32;;;;;;;;;2.00;2.00;;;;;25.35;48.48;101014.03;5017279;28;45371;-56
2022/08/23 04:27:57;;;;;;;;;1.00;1.00;;;;;25.36;48.33;101015.69;5016861;28;45292;-55
2022/08/23 04:30:22;;;;;;;;;1.00;1.00;;;;;25.38;48.41;101018.25;5017062;28;45439;-52
2022/08/23 04:32:48;;;;;;;;;2.00;1.25;;;;;25.39;48.28;101012.00;5031552;28;46017;-56
2022/08/23 04:35:14;;;;;;;;;1.00;1.00;;;;;25.38;48.54;101012.97;5042301;28;45341;-53
2022/08/23 04:37:40;;;;;;;;;1.75;1.50;;;;;25.38;48.74;101015.63;5059085;28;45208;-55
2022/08/23 04:42:50;;;;;;;;;1.00;1.00;;;;;25.36;48.62;101021.00;5027418;28;45518;-56
2022/08/23 04:45:15;;;;;;;;;1.00;1.00;;;;;25.38;48.75;101028.88;5018398;28;45348;-55
2022/08/23 04:47:43;;;;;;;;;1.00;1.00;;;;;25.38;48.64;101031.53;5017371;28;45331;-56
2022/08/23 04:50:08;;;;;;;;;3.75;3.75;;;;;25.39;48.73;101026.09;5019070;28;45380;-56
2022/08/23 04:52:34;;;;;;;;;2.00;2.00;;;;;25.41;48.88;101031.34;5034566;28;46410;-55
2022/08/23 04:54:59;;;;;;;;;1.75;1.75;;;;;25.39;48.95;101027.91;5036334;28;45459;-55
2022/08/23 04:57:24;;;;;;;;;2.00;0.00;;;;;25.39;48.91;101030.56;5036338;28;45906;-54
2022/08/23 04:59:50;;;;;;;;;1.50;1.00;;;;;25.39;48.92;101031.41;5036224;28;45549;-55
2022/08/23 05:02:15;;;;;;;;;3.00;1.75;;;;;25.37;48.68;101028.00;5021463;28;47130;-54
2022/08/23 05:04:41;;;;;;;;;2.00;2.00;;;;;25.37;48.22;101040.44;5016271;28;45422;-54
2022/08/23 05:07:06;;;;;;;;;1.00;1.00;;;;;25.36;48.46;101036.94;5016375;28;45408;-55
2022/08/23 05:09:31;;;;;;;;;1.75;1.00;;;;;25.35;48.61;101037.06;5023536;28;45731;-54
2022/08/23 05:11:57;;;;;;;;;2.00;2.00;;;;;25.29;48.62;101039.22;5050611;28;46464;-55
2022/08/23 05:14:22;;;;;;;;;1.75;1.75;;;;;25.27;48.47;101045.56;5059571;28;44635;-55
2022/08/23 05:16:48;;;;;;;;;0.75;0.75;;;;;25.19;49.11;101035.50;5052390;28;45254;-55
2022/08/23 05:19:13;;;;;;;;;3.00;1.00;;;;;25.14;49.33;101043.78;5036701;28;45244;-56
2022/08/23 05:21:39;;;;;;;;;1.75;1.00;;;;;25.13;48.68;101042.13;5028398;28;45379;-54
2022/08/23 05:24:04;;;;;;;;;2.00;1.00;;;;;25.12;49.32;101035.13;5016743;28;45474;-54
2022/08/23 05:26:30;;;;;;;;;2.00;1.00;;;;;25.10;49.11;101041.47;5017787;28;45314;-53
2022/08/23 05:28:55;;;;;;;;;2.00;1.00;;;;;25.09;49.32;101045.06;5017563;28;45290;-55
2022/08/23 05:31:26;;;;;;;;;2.00;1.00;;;;;25.06;49.64;101040.84;5020727;28;46306;-53
2022/08/23 05:33:52;;;;;;;;;1.50;1.50;;;;;25.04;49.07;101045.41;5034368;28;45439;-56
2022/08/23 05:36:19;;;;;;;;;1.00;1.00;;;;;25.01;49.11;101038.53;5031290;28;45233;-55
2022/08/23 05:38:45;;;;;;;;;2.00;1.75;;;;;25.01;49.22;101043.00;5017910;28;45195;-55
2022/08/23 05:41:12;;;;;;;;;5.00;2.00;;;;;25.04;49.55;101041.94;5035891;28;45261;-54
2022/08/23 05:43:37;;;;;;;;;1.00;1.00;;;;;25.04;49.72;101048.06;5036091;28;45754;-55
2022/08/23 05:46:12;;;;;;;;;2.00;2.00;;;;;25.03;49.06;101043.72;5036259;28;45464;-54
2022/08/23 05:48:40;;;;;;;;;3.00;2.00;;;;;25.09;49.07;101051.25;5035393;28;45518;-54
2022/08/23 05:51:18;;;;;;;;;1.00;1.00;;;;;25.12;49.02;101052.81;5018438;28;45574;-54
2022/08/23 05:53:45;;;;;;;;;3.25;2.25;;;;;25.12;49.02;101044.88;5017965;28;45276;-55
2022/08/23 05:56:12;;;;;;;;;3.00;2.00;;;;;25.12;49.50;101043.09;5017759;28;45354;-55
2022/08/23 05:58:38;;;;;;;;;2.00;2.00;;;;;25.13;49.57;101042.13;5017378;28;45478;-55
2022/08/23 06:01:03;;;;;;;;;2.50;2.00;;;;;25.14;49.58;101042.97;5034216;28;46169;-55
2022/08/23 06:03:29;;;;;;;;;2.00;1.00;;;;;25.12;49.25;101045.72;5038853;28;45483;-54
2022/08/23 06:05:59;;;;;;;;;2.00;2.00;;;;;25.12;49.58;101050.19;5043636;28;45309;-55
2022/08/23 06:08:25;;;;;;;;;2.00;2.00;;;;;25.11;49.54;101053.78;5046657;28;45632;-55
2022/08/23 06:11:08;;;;;;;;;2.00;2.00;;;;;25.07;49.75;101052.31;5037764;28;46360;-55
2022/08/23 06:13:38;;;;;;;;;2.00;2.00;;;;;25.07;49.37;101054.97;5049800;28;45320;-54
2022/08/23 06:16:04;;;;;;;;;6.75;4.25;;;;;25.04;49.89;101052.53;5039516;28;45387;-54
2022/08/23 06:18:29;;;;;;;;;2.50;2.50;;;;;25.03;49.65;101058.78;5039385;28;45221;-53
2022/08/23 06:21:03;;;;;;;;;2.00;2.00;;;;;24.99;49.33;101058.16;5053815;28;65342;-52
2022/08/23 06:23:29;;;;;;;;;4.00;3.00;;;;;24.99;49.70;101056.34;5041604;28;44993;-55
2022/08/23 06:25:55;;;;;;;;;2.00;1.00;;;;;25.03;50.11;101058.78;5042594;28;44712;-56
2022/08/23 06:28:21;;;;;;;;;2.00;2.00;;;;;25.04;49.39;101063.97;5026649;28;45372;-55
2022/08/23 06:30:46;;;;;;;;;4.25;3.25;;;;;25.07;49.98;101061.13;5016087;28;45468;-56
2022/08/23 06:33:12;;;;;;;;;3.25;3.00;;;;;25.09;49.46;101074.25;5034845;28;45443;-54
2022/08/23 06:35:37;;;;;;;;;3.25;2.25;;;;;25.09;49.46;101076.91;5048630;28;45394;-56
2022/08/23 06:38:03;;;;;;;;;1.75;1.75;;;;;25.10;49.67;101081.25;5057594;28;44817;-54
2022/08/23 06:40:28;;;;;;;;;2.25;2.25;;;;;25.11;49.82;101077.66;5035539;28;47009;-55
2022/08/23 06:42:54;;;;;;;;;3.00;3.00;;;;;25.12;49.54;101077.56;5017012;28;45504;-55
2022/08/23 06:45:19;;;;;;;;;3.50;3.50;;;;;25.17;49.40;101078.06;5014666;28;45401;-56
2022/08/23 06:47:45;;;;;;;;;4.00;2.75;;;;;25.17;49.94;101069.28;5015231;28;45705;-55
2022/08/23 06:50:10;;;;;;;;;3.75;3.00;;;;;25.16;49.86;101072.88;5013983;28;60648;-55
2022/08/23 06:52:36;;;;;;;;;3.25;3.00;;;;;25.18;49.69;101073.63;5031254;28;45293;-53
2022/08/23 06:55:02;;;;;;;;;4.75;2.00;;;;;25.21;49.66;101085.81;5034752;28;45824;-50
2022/08/23 06:57:27;;;;;;;;;3.75;3.75;;;;;25.24;49.63;101082.94;5035138;28;45502;-51
2022/08/23 06:59:53;;;;;;;;;2.25;2.25;;;;;25.24;50.07;101081.13;5034817;28;45341;-53
2022/08/23 07:02:18;;;;;;;;;3.75;3.75;;;;;25.27;49.89;101085.34;5023318;28;45414;-51
2022/08/23 07:04:43;;;;;;;;;2.00;2.00;;;;;25.29;50.10;101088.75;5017822;28;54897;-53
2022/08/23 07:07:10;;;;;;;;;4.00;3.00;;;;;25.30;49.38;101085.97;5020382;28;45335;-54
2022/08/23 07:09:35;;;;;;;;;3.25;3.25;;;;;25.33;49.33;101090.22;5026683;28;46213;-54
2022/08/23 07:12:01;;;;;;;;;3.75;3.50;;;;;25.32;49.65;101092.03;5051291;28;44764;-56
2022/08/23 07:14:27;;;;;;;;;4.75;3.00;;;;;25.33;49.88;101092.88;5057957;28;45830;-55
2022/08/23 07:16:58;;;;;;;;;4.50;3.00;;;;;25.35;49.41;101098.06;5043814;28;45518;-57
2022/08/23 07:19:27;;;;;;;;;3.00;3.00;;;;;25.34;49.66;101091.94;5039198;28;45407;-57
2022/08/23 07:21:53;;;;;;;;;3.75;3.75;;;;;25.36;49.88;101091.81;5030289;28;45630;-57
2022/08/23 07:24:19;;;;;;;;;2.50;2.50;;;;;25.39;49.79;101100.38;5019013;28;45220;-56
2022/08/23 07:26:47;;;;;;;;;2.00;2.00;;;;;25.41;50.00;101092.38;5018417;28;45535;-56
2022/08/23 07:29:13;;;;;;;;;3.75;2.50;;;;;25.42;50.10;101097.56;5020751;28;47723;-56
2022/08/23 07:31:42;;;;;;;;;3.00;3.00;;;;;25.44;50.01;101100.09;5038808;28;45351;-57
2022/08/23 07:34:08;;;;;;;;;3.00;3.00;;;;;25.46;49.75;101103.50;5037472;28;45402;-55
2022/08/23 07:36:34;;;;;;;;;4.50;3.00;;;;;25.48;50.06;101101.56;5047944;28;45543;-56
2022/08/23 07:39:00;;;;;;;;;2.00;2.00;;;;;25.49;50.11;101100.63;5050619;28;46470;-56
2022/08/23 07:41:29;;;;;;;;;2.50;2.50;;;;;25.51;50.26;101111.97;5055543;28;44903;-56
2022/08/23 07:43:57;;;;;;;;;4.00;3.00;;;;;25.52;50.54;101116.28;5043757;28;44777;-55
2022/08/23 07:46:23;;;;;;;;;3.00;2.00;;;;;25.52;50.44;101111.00;5029143;28;45269;-56
2022/08/23 07:48:49;;;;;;;;;2.00;2.00;;;;;25.55;51.06;101110.78;5019916;28;46840;-54
2022/08/23 07:51:15;;;;;;;;;2.00;2.00;;;;;25.55;51.17;101110.78;5054391;28;45415;-57
2022/08/23 07:53:40;;;;;;;;;2.00;2.00;;;;;25.55;50.49;101109.94;5045152;28;45249;-53
2022/08/23 07:56:09;;;;;;;;;1.00;1.00;;;;;25.57;51.04;101116.00;5037016;28;45641;-56
2022/08/23 07:58:34;;;;;;;;;2.00;1.75;;;;;25.56;51.06;101123.09;5036856;28;46290;-55
2022/08/23 08:01:14;;;;;;;;;5.00;2.00;;;;;25.59;50.69;101117.56;5019716;28;45379;-56
2022/08/23 08:03:40;;;;;;;;;4.00;2.25;;;;;25.59;50.74;101117.56;5017610;28;45309;-56
2022/08/23 08:06:11;;;;;;;;;3.00;2.00;;;;;25.61;50.82;101115.66;5017882;28;45230;-56
2022/08/23 08:08:36;;;;;;;;;2.00;2.00;;;;;25.62;50.68;101120.00;5017662;28;47336;-56
2022/08/23 08:11:02;;;;;;;;;2.00;2.00;;;;;25.63;50.98;101113.72;5016855;28;45332;-56
2022/08/23 08:13:28;;;;;;;;;2.00;1.00;;;;;25.66;50.56;101127.72;5026076;28;45324;-55
2022/08/23 08:15:53;;;;;;;;;4.25;2.25;;;;;25.65;50.82;101120.72;5029365;28;45159;-56
2022/08/23 08:18:19;;;;;;;;;3.75;2.25;;;;;25.66;50.60;101125.06;5021800;28;45970;-56
2022/08/23 08:20:44;;;;;;;;;4.00;2.00;;;;;25.67;50.69;101121.47;5026231;28;45340;-55
2022/08/23 08:23:09;;;;;;;;;4.25;3.25;;;;;25.69;50.67;101123.03;5047860;28;58522;-54
2022/08/23 08:25:35;;;;;;;;;4.00;2.75;;;;;25.68;50.93;101124.03;5056814;28;44866;-55
2022/08/23 08:28:00;;;;;;;;;3.50;3.00;;;;;25.71;50.51;101120.28;5053537;28;46026;-58
2022/08/23 08:30:26;;;;;;;;;3.75;3.75;;;;;25.72;50.75;101129.94;5042147;28;45366;-55
2022/08/23 08:32:51;;;;;;;;;4.00;3.00;;;;;25.72;50.87;101124.63;5050087;28;45350;-56
2022/08/23 09:08:48;;;;;;;;;3.75;3.00;;;;;25.83;50.04;101148.59;5908035;22;46526;-48
2022/08/23 09:11:34;;;;;;;;;5.00;5.00;;;;;25.82;50.18;101148.69;5014179;28;45430;-50
2022/08/23 09:14:29;;;;;;;;;4.00;4.00;;;;;25.84;50.38;101150.28;5015059;28;45590;-50
2022/08/23 09:17:17;;;;;;;;;4.00;4.00;;;;;25.84;50.32;101138.81;5010132;28;45625;-50
2022/08/23 09:19:45;;;;;;;;;5.50;4.00;;;;;25.86;50.56;101140.38;4997366;28;45524;-51
2022/08/23 09:22:13;;;;;;;;;5.00;3.75;;;;;25.87;50.28;101143.91;4998407;28;45950;-55
2022/08/23 09:24:40;;;;;;;;;5.75;5.00;;;;;25.87;50.16;101142.06;5002766;28;46618;-52
2022/08/23 09:27:08;;;;;;;;;5.25;4.00;;;;;25.88;50.08;101146.44;4998845;28;45153;-51
2022/08/23 09:29:36;;;;;;;;;4.00;4.00;;;;;25.89;50.27;101145.47;5013041;28;45430;-50
2022/08/23 09:32:24;;;;;;;;;6.00;4.00;;;;;25.91;50.03;101148.00;4995167;28;45630;-54
2022/08/23 09:34:49;;;;;;;;;3.75;3.00;;;;;25.92;50.12;101144.38;4995825;28;46669;-53
2022/08/23 09:37:17;;;;;;;;;4.50;3.00;;;;;25.93;49.94;101148.75;4995695;28;53327;-53
2022/08/23 09:39:50;;;;;;;;;5.00;4.00;;;;;25.96;50.28;101145.03;4996827;28;45495;-45
2022/08/23 09:42:35;;;;;;;;;3.25;3.25;;;;;25.97;50.15;101149.34;5011170;28;45403;-47
2022/08/23 09:45:03;;;;;;;;;4.50;3.25;;;;;25.98;50.04;101149.28;5014084;28;46366;-49
2022/08/23 09:47:33;;;;;;;;;4.50;3.00;;;;;26.01;50.59;101148.19;5013020;28;45801;-49
2022/08/23 09:50:09;;;;;;;;;4.00;3.00;;;;;26.02;50.45;101150.72;5014419;28;45424;-46
2022/08/23 09:52:36;;;;;;;;;3.25;3.25;;;;;26.06;50.60;101154.03;5015331;28;45263;-50
2022/08/23 09:55:10;;;;;;;;;6.25;3.00;;;;;26.08;50.18;101144.09;4996319;28;46208;-51
2022/08/23 09:57:36;;;;;;;;;5.00;4.00;;;;;26.08;50.41;101150.28;4994553;28;45612;-51
2022/08/23 10:00:23;;;;;;;;;4.00;4.00;;;;;26.11;49.69;101151.03;5029553;28;45561;-54
2022/08/23 10:02:49;;;;;;;;;4.25;3.00;;;;;26.11;50.01;101143.91;5015367;28;45478;-56
2022/08/23 10:05:14;;;;;;;;;3.25;3.25;;;;;26.12;49.92;101150.91;5015188;28;46404;-56
2022/08/23 10:07:44;;;;;;;;;3.67;2.00;;;;;26.12;49.95;101140.28;5013307;28;45536;-49
2022/08/23 10:10:34;;;;;;;;;3.25;3.25;;;;;26.13;50.20;101143.81;5009248;28;45561;-50
2022/08/23 10:13:01;;;;;;;;;6.50;3.00;;;;;26.13;50.06;101131.38;5000730;28;45977;-49
2022/08/23 10:15:48;;;;;;;;;4.75;3.00;;;;;26.13;50.20;101134.03;4997862;28;46163;-57
2022/08/23 10:18:44;;;;;;;;;2.75;2.75;;;;;26.14;50.20;101129.53;5002604;28;45782;-50
2022/08/23 10:21:31;;;;;;;;;4.50;3.00;;;;;26.15;50.07;101140.06;4999818;28;45470;-47
2022/08/23 10:24:33;;;;;;;;;4.25;3.00;;;;;26.14;49.93;101135.72;5009107;28;45553;-49
2022/08/23 10:30:08;;;;;;;;;2.00;2.00;;;;;26.13;50.03;101130.53;4995514;28;45229;-52
2022/08/23 10:32:51;;;;;;;;;5.50;3.00;;;;;26.12;49.94;101134.97;4995851;28;45567;-48
2022/08/23 10:35:25;;;;;;;;;4.00;2.00;;;;;26.13;50.32;101125.22;4998081;28;45316;-46
2022/08/23 10:38:05;;;;;;;;;3.25;2.75;;;;;26.13;50.14;101126.06;4999045;28;46591;-48
2022/08/23 10:40:44;;;;;;;;;4.00;2.50;;;;;26.13;50.14;101119.91;4999009;28;45700;-50
2022/08/23 10:43:24;;;;;;;;;3.25;2.75;;;;;26.13;50.26;101120.75;5012130;28;45268;-47
2022/08/23 10:45:51;;;;;;;;;3.00;2.50;;;;;26.13;49.86;101115.44;5017643;28;45872;-46
2022/08/23 10:48:40;;;;;;;;;2.00;1.25;;;;;26.14;50.24;101113.59;5018307;28;45300;-47
2022/08/23 10:51:17;;;;;;;;;7.00;3.00;;;;;26.13;50.06;101114.59;5018770;28;45621;-47
2022/08/23 10:53:55;;;;;;;;;3.00;2.00;;;;;26.13;50.62;101110.13;5003767;28;45325;-49
2022/08/23 10:56:22;;;;;;;;;2.50;2.50;;;;;26.14;50.76;101110.94;4998898;28;45323;-52
2022/08/23 10:59:00;;;;;;;;;3.00;3.00;;;;;26.14;50.87;101111.81;4998513;28;46115;-47
2022/08/23 11:01:34;;;;;;;;;2.00;2.00;;;;;26.14;50.33;101117.13;4998623;28;45427;-48
2022/08/23 11:04:25;;;;;;;;;2.00;2.00;;;;;26.15;51.00;101113.50;5014100;28;45391;-55
2022/08/23 11:06:54;;;;;;;;;2.00;2.00;;;;;26.15;50.54;101112.66;5017282;28;45343;-48
2022/08/23 11:09:20;;;;;;;;;2.00;2.00;;;;;26.15;50.86;101113.50;5010776;28;45583;-49
2022/08/23 11:11:47;;;;;;;;;2.00;2.00;;;;;26.14;50.48;101103.84;4998734;28;45239;-53
2022/08/23 11:14:32;;;;;;;;;3.00;3.00;;;;;26.15;50.94;101099.38;4998423;28;45429;-47
2022/08/23 11:17:01;;;;;;;;;3.25;3.25;;;;;26.15;50.97;101110.00;4999049;28;45469;-53
2022/08/23 11:19:53;;;;;;;;;3.00;2.00;;;;;26.16;50.66;101106.38;4998425;28;46369;-54
2022/08/23 11:22:29;;;;;;;;;3.50;2.75;;;;;26.16;50.11;101107.25;4998226;28;45357;-53
2022/08/23 11:24:58;;;;;;;;;2.25;2.00;;;;;26.16;50.58;101098.41;4998708;28;45467;-60
2022/08/23 11:27:26;;;;;;;;;4.00;2.00;;;;;26.16;50.30;101109.91;4998371;28;45573;-53
2022/08/23 11:29:51;;;;;;;;;1.50;1.00;;;;;26.16;49.92;101101.06;4998181;28;46336;-53
2022/08/23 11:32:38;;;;;;;;;1.00;1.00;;;;;26.15;50.24;101105.53;4998131;28;45398;-53
2022/08/23 11:35:11;;;;;;;;;2.75;1.75;;;;;26.13;50.11;101096.84;4998260;28;45399;-52
2022/08/23 11:37:52;;;;;;;;;2.25;2.00;;;;;26.15;50.49;101100.22;4998901;28;45420;-52
2022/08/23 11:40:56;;;;;;;;;2.75;1.00;;;;;26.16;50.23;101101.94;4997738;28;47236;-48
2022/08/23 11:43:26;;;;;;;;;2.00;2.00;;;;;26.15;50.12;101100.22;4998080;28;45730;-49
2022/08/23 11:45:52;;;;;;;;;1.00;1.00;;;;;26.15;49.89;101097.56;4997846;28;45518;-50
2022/08/23 11:48:37;;;;;;;;;1.00;1.00;;;;;26.16;50.30;101099.28;4997693;28;45323;-52
2022/08/23 11:51:36;;;;;;;;;3.50;2.00;;;;;26.17;50.02;101100.09;4997798;28;45704;-48
2022/08/23 11:54:46;;;;;;;;;2.75;1.00;;;;;26.16;50.16;101093.97;4997777;28;45358;-50
2022/08/23 11:57:48;;;;;;;;;1.75;1.00;;;;;26.17;49.87;101100.97;4997813;28;45349;-49
2022/08/23 12:00:37;;;;;;;;;1.25;1.00;;;;;26.17;49.42;101100.09;4997775;28;45430;-50
2022/08/23 12:03:05;;;;;;;;;1.00;1.00;;;;;26.16;49.42;101104.59;4997203;28;47376;-49
2022/08/23 12:05:37;;;;;;;;;1.00;1.00;;;;;26.17;49.47;101100.97;4997976;28;45356;-55
2022/08/23 12:08:02;;;;;;;;;1.00;1.00;;;;;26.18;48.92;101099.13;4997564;28;45509;-48
2022/08/23 12:10:40;;;;;;;;;1.00;1.00;;;;;26.18;49.14;101091.16;4997733;28;45347;-47
2022/08/23 12:13:17;;;;;;;;;1.50;1.00;;;;;26.17;49.00;101095.66;4997269;28;45529;-49
2022/08/23 12:16:25;;;;;;;;;1.00;1.00;;;;;26.19;49.07;101099.00;4997587;28;45322;-49
2022/08/23 12:18:52;;;;;;;;;1.00;1.00;;;;;26.19;49.12;101096.34;4997749;28;45430;-50
2022/08/23 12:21:44;;;;;;;;;1.00;1.00;;;;;26.19;49.27;101093.69;4997422;28;45319;-51